createdAt,value
2018-09-17T00:02:13.041Z,16.93
2018-09-17T00:04:42.793Z,17.77
2018-09-17T00:07:12.411Z,15.60
2018-09-17T00:09:42.019Z,15.13
2018-09-17T00:12:11.638Z,15.53
2018-09-17T00:14:41.208Z,15.57
2018-09-17T00:17:10.808Z,15.20
2018-09-17T00:19:40.436Z,15.67
2018-09-17T00:22:10.067Z,15.10
2018-09-17T00:24:39.688Z,16.03
2018-09-17T00:27:09.362Z,15.13
2018-09-17T00:29:39.107Z,14.90
2018-09-17T00:32:08.920Z,14.80
2018-09-17T00:34:38.525Z,14.63
2018-09-17T00:37:08.176Z,14.43
2018-09-17T00:39:37.747Z,15.03
2018-09-17T00:42:07.394Z,14.20
2018-09-17T00:44:36.970Z,15.40
2018-09-17T00:47:06.648Z,14.27
2018-09-17T00:49:36.275Z,14.93
2018-09-17T00:52:05.944Z,14.00
2018-09-17T00:54:35.664Z,14.60
2018-09-17T00:57:05.545Z,14.83
2018-09-17T00:59:35.154Z,14.43
2018-09-17T01:02:04.777Z,13.63
2018-09-17T01:04:34.413Z,13.67
2018-09-17T01:07:04.028Z,13.43
2018-09-17T01:09:38.609Z,14.57
2018-09-17T01:12:08.220Z,14.03
2018-09-17T01:14:37.905Z,14.23
2018-09-17T01:17:07.559Z,14.23
2018-09-17T01:19:37.240Z,14.77
2018-09-17T01:22:06.808Z,15.03
2018-09-17T01:24:36.446Z,15.70
2018-09-17T01:27:06.131Z,15.67
2018-09-17T01:29:35.758Z,15.37
2018-09-17T01:32:05.313Z,15.97
2018-09-17T01:34:34.941Z,14.80
2018-09-17T01:37:04.582Z,16.10
2018-09-17T01:39:34.206Z,15.87
2018-09-17T01:42:03.791Z,15.53
2018-09-17T01:44:33.400Z,16.00
2018-09-17T01:47:03.037Z,16.77
2018-09-17T01:49:32.649Z,17.03
2018-09-17T01:52:02.260Z,16.10
2018-09-17T01:54:31.869Z,16.27
2018-09-17T01:57:01.495Z,16.90
2018-09-17T01:59:31.079Z,17.27
2018-09-17T02:02:00.656Z,18.13
2018-09-17T02:04:30.264Z,18.50
2018-09-17T02:06:59.865Z,19.17
2018-09-17T02:09:29.394Z,19.80
2018-09-17T02:11:59.008Z,19.80
2018-09-17T02:14:28.632Z,20.27
2018-09-17T02:16:58.199Z,18.47
2018-09-17T02:19:27.811Z,19.27
2018-09-17T02:21:57.436Z,19.73
2018-09-17T02:24:27.171Z,20.17
2018-09-17T02:26:56.685Z,19.30
2018-09-17T02:29:26.317Z,19.07
2018-09-17T02:31:55.983Z,19.43
2018-09-17T02:34:25.641Z,20.00
2018-09-17T02:36:55.280Z,19.50
2018-09-17T02:39:24.979Z,19.77
2018-09-17T02:41:54.591Z,19.30
2018-09-17T02:44:24.155Z,19.97
2018-09-17T02:46:53.755Z,20.17
2018-09-17T02:49:23.291Z,19.70
2018-09-17T02:51:52.914Z,19.83
2018-09-17T02:54:22.627Z,19.57
2018-09-17T02:56:52.202Z,18.73
2018-09-17T02:59:21.871Z,19.17
2018-09-17T03:01:51.452Z,19.47
2018-09-17T03:04:21.124Z,18.80
2018-09-17T03:06:50.807Z,20.30
2018-09-17T03:09:20.482Z,20.37
2018-09-17T03:11:50.098Z,20.20
2018-09-17T03:14:26.954Z,20.23
2018-09-17T03:17:12.056Z,18.37
2018-09-17T03:19:42.770Z,17.83
2018-09-17T03:22:13.342Z,17.97
2018-09-17T03:24:43.148Z,17.67
2018-09-17T03:27:12.780Z,17.93
2018-09-17T03:29:42.366Z,18.00
2018-09-17T03:32:12.115Z,17.60
2018-09-17T03:34:41.753Z,17.83
2018-09-17T03:37:13.005Z,16.90
2018-09-17T03:39:44.687Z,18.40
2018-09-17T03:42:19.775Z,18.17
2018-09-17T03:44:49.769Z,18.60
2018-09-17T03:47:19.439Z,16.50
2018-09-17T03:49:49.308Z,19.10
2018-09-17T03:52:26.410Z,16.80
2018-09-17T03:54:57.038Z,18.37
2018-09-17T03:57:26.649Z,17.90
2018-09-17T03:59:56.332Z,18.20
2018-09-17T04:02:25.971Z,19.50
2018-09-17T04:04:55.718Z,18.37
2018-09-17T04:07:25.290Z,18.80
2018-09-17T04:09:54.881Z,18.13
2018-09-17T04:12:24.509Z,17.30
2018-09-17T04:14:54.179Z,18.07
2018-09-17T04:17:23.819Z,17.87
2018-09-17T04:19:53.471Z,17.13
2018-09-17T04:22:23.180Z,18.50
2018-09-17T04:24:52.782Z,17.73
2018-09-17T04:27:22.403Z,16.97
2018-09-17T04:29:51.998Z,18.20
2018-09-17T04:32:21.692Z,18.47
2018-09-17T04:34:51.339Z,16.67
2018-09-17T04:37:20.962Z,16.57
2018-09-17T04:39:50.689Z,16.33
2018-09-17T04:42:20.308Z,15.93
2018-09-17T04:44:49.888Z,17.17
2018-09-17T04:47:19.616Z,28.00
2018-09-17T04:49:49.348Z,34.97
2018-09-17T04:52:18.973Z,41.17
2018-09-17T04:54:48.596Z,35.40
2018-09-17T04:57:18.450Z,33.30
2018-09-17T04:59:48.120Z,28.87
2018-09-17T05:02:17.685Z,26.83
2018-09-17T05:04:47.317Z,26.30
2018-09-17T05:07:16.960Z,27.77
2018-09-17T05:09:46.655Z,24.17
2018-09-17T05:12:16.372Z,20.83
2018-09-17T05:14:46.026Z,18.83
2018-09-17T05:17:15.692Z,17.37
2018-09-17T05:19:45.337Z,17.17
2018-09-17T05:22:14.974Z,19.00
2018-09-17T05:24:44.730Z,16.90
2018-09-17T05:27:14.376Z,17.23
2018-09-17T05:29:44.026Z,16.67
2018-09-17T05:32:13.574Z,16.80
2018-09-17T05:34:43.249Z,15.93
2018-09-17T05:37:12.837Z,16.03
2018-09-17T05:39:42.475Z,16.17
2018-09-17T05:42:12.148Z,17.10
2018-09-17T05:44:42.027Z,15.83
2018-09-17T05:47:11.697Z,16.03
2018-09-17T05:49:41.419Z,15.53
2018-09-17T05:52:10.985Z,16.40
2018-09-17T05:54:40.619Z,17.13
2018-09-17T05:57:10.321Z,15.57
2018-09-17T05:59:39.999Z,15.93
2018-09-17T06:02:09.675Z,19.90
2018-09-17T06:04:39.422Z,17.07
2018-09-17T06:07:09.250Z,16.30
2018-09-17T06:09:38.796Z,20.83
2018-09-17T06:12:08.437Z,20.50
2018-09-17T06:14:38.104Z,17.10
2018-09-17T06:17:07.659Z,17.07
2018-09-17T06:19:37.336Z,17.20
2018-09-17T06:22:07.049Z,17.40
2018-09-17T06:24:36.619Z,17.30
2018-09-17T06:27:06.310Z,17.83
2018-09-17T06:29:35.993Z,16.87
2018-09-17T06:32:05.616Z,17.07
2018-09-17T06:34:35.206Z,16.33
2018-09-17T06:37:04.861Z,16.70
2018-09-17T06:39:34.434Z,16.37
2018-09-17T06:42:04.032Z,20.40
2018-09-17T06:44:33.619Z,18.83
2018-09-17T06:47:03.250Z,15.57
2018-09-17T06:49:32.815Z,15.53
2018-09-17T06:52:02.357Z,14.40
2018-09-17T06:54:31.938Z,14.23
2018-09-17T06:57:01.580Z,14.85
2018-09-17T06:59:31.177Z,13.78
2018-09-17T07:02:00.784Z,13.63
2018-09-17T07:04:30.374Z,14.07
2018-09-17T07:07:00.026Z,13.57
2018-09-17T07:09:29.639Z,14.00
2018-09-17T07:11:59.250Z,14.97
2018-09-17T07:14:28.883Z,13.23
2018-09-17T07:16:58.526Z,13.33
2018-09-17T07:19:28.188Z,14.20
2018-09-17T07:21:57.805Z,13.33
2018-09-17T07:24:27.384Z,13.47
2018-09-17T07:26:56.977Z,13.88
2018-09-17T07:29:26.600Z,13.30
2018-09-17T07:31:56.274Z,12.97
2018-09-17T07:34:25.932Z,15.03
2018-09-17T07:36:55.493Z,14.33
2018-09-17T07:39:25.104Z,13.43
2018-09-17T07:41:55.555Z,14.80
2018-09-17T07:44:25.157Z,20.55
2018-09-17T07:46:54.719Z,22.67
2018-09-17T07:49:24.288Z,16.02
2018-09-17T07:51:53.956Z,14.93
2018-09-17T07:54:23.731Z,20.17
2018-09-17T07:56:53.437Z,21.23
2018-09-17T07:59:23.178Z,16.15
2018-09-17T08:01:52.771Z,21.50
2018-09-17T08:04:22.400Z,19.27
2018-09-17T08:06:51.940Z,19.00
2018-09-17T08:09:21.560Z,20.63
2018-09-17T08:11:51.556Z,16.70
2018-09-17T08:14:21.422Z,12.90
2018-09-17T08:16:51.021Z,14.38
2018-09-17T08:19:20.726Z,13.27
2018-09-17T08:21:50.358Z,18.50
2018-09-17T08:24:20.141Z,13.13
2018-09-17T08:26:49.775Z,12.67
2018-09-17T08:29:19.345Z,13.73
2018-09-17T08:31:48.979Z,13.03
2018-09-17T08:34:18.803Z,12.30
2018-09-17T08:36:48.410Z,12.65
2018-09-17T08:39:18.014Z,12.50
2018-09-17T08:41:47.606Z,12.47
2018-09-17T08:44:17.210Z,13.70
2018-09-17T08:46:46.962Z,13.27
2018-09-17T08:49:16.902Z,13.77
2018-09-17T08:51:46.534Z,18.10
2018-09-17T08:54:16.152Z,19.87
2018-09-17T08:56:49.898Z,13.87
2018-09-17T08:59:24.993Z,16.27
2018-09-17T09:02:15.212Z,16.33
2018-09-17T09:04:50.490Z,15.00
2018-09-17T09:07:25.228Z,14.57
2018-09-17T09:09:58.936Z,17.50
2018-09-17T09:12:32.650Z,14.03
2018-09-17T09:15:07.434Z,16.13
2018-09-17T09:17:37.018Z,16.97
2018-09-17T09:20:06.616Z,14.17
2018-09-17T09:22:38.462Z,13.57
2018-09-17T09:25:08.221Z,13.60
2018-09-17T09:27:37.831Z,15.40
2018-09-17T09:30:07.468Z,12.93
2018-09-17T09:32:37.032Z,14.47
2018-09-17T09:35:06.962Z,14.20
2018-09-17T09:37:36.567Z,14.40
2018-09-17T09:40:06.261Z,13.97
2018-09-17T09:42:35.865Z,15.03
2018-09-17T09:45:05.571Z,13.07
2018-09-17T09:47:35.153Z,12.57
2018-09-17T09:50:04.794Z,12.17
2018-09-17T09:52:34.459Z,14.83
2018-09-17T09:55:04.035Z,12.33
2018-09-17T09:59:01.426Z,16.20
2018-09-17T10:01:37.110Z,14.47
2018-09-17T10:04:12.320Z,13.80
2018-09-17T10:06:41.888Z,14.53
2018-09-17T10:09:16.682Z,13.37
2018-09-17T10:11:51.349Z,13.13
2018-09-17T10:14:25.873Z,19.17
2018-09-17T10:17:00.494Z,11.03
2018-09-17T10:19:30.182Z,13.07
2018-09-17T10:21:59.789Z,12.43
2018-09-17T10:24:29.455Z,12.87
2018-09-17T10:26:59.058Z,13.53
2018-09-17T10:29:28.611Z,14.43
2018-09-17T10:31:58.353Z,13.17
2018-09-17T10:34:27.992Z,13.20
2018-09-17T10:36:57.613Z,12.70
2018-09-17T10:39:27.327Z,15.70
2018-09-17T10:41:56.933Z,14.63
2018-09-17T10:44:26.548Z,13.20
2018-09-17T10:46:56.266Z,16.10
2018-09-17T10:49:25.885Z,15.90
2018-09-17T10:51:55.448Z,15.67
2018-09-17T10:54:25.100Z,16.60
2018-09-17T10:56:54.743Z,16.02
2018-09-17T10:59:24.400Z,17.60
2018-09-17T11:01:54.077Z,17.00
2018-09-17T11:04:23.697Z,13.40
2018-09-17T11:06:53.235Z,13.32
2018-09-17T11:09:22.880Z,14.68
2018-09-17T11:11:52.490Z,14.10
2018-09-17T11:14:22.201Z,14.55
2018-09-17T11:16:51.913Z,13.43
2018-09-17T11:19:21.518Z,15.03
2018-09-17T11:21:51.181Z,16.15
2018-09-17T11:24:20.893Z,17.60
2018-09-17T11:26:50.496Z,15.90
2018-09-17T11:29:20.530Z,15.35
2018-09-17T11:31:50.194Z,14.95
2018-09-17T11:34:19.863Z,16.17
2018-09-17T11:36:49.520Z,15.05
2018-09-17T11:39:19.134Z,12.90
2018-09-17T11:41:48.861Z,12.18
2018-09-17T11:44:18.536Z,12.55
2018-09-17T11:46:48.068Z,13.03
2018-09-17T11:49:17.717Z,12.45
2018-09-17T11:51:47.325Z,12.98
2018-09-17T11:54:16.874Z,13.47
2018-09-17T11:56:46.572Z,12.88
2018-09-17T11:59:16.204Z,12.28
2018-09-17T12:01:55.913Z,11.40
2018-09-17T12:04:32.421Z,9.90
2018-09-17T12:07:07.286Z,10.00
2018-09-17T12:09:36.911Z,11.20
2018-09-17T12:12:06.894Z,11.63
2018-09-17T12:14:36.466Z,11.43
2018-09-17T12:17:06.086Z,12.33
2018-09-17T12:19:35.700Z,13.08
2018-09-17T12:22:05.511Z,16.00
2018-09-17T12:24:35.160Z,11.12
2018-09-17T12:27:04.763Z,10.45
2018-09-17T12:29:34.406Z,10.78
2018-09-17T12:32:04.969Z,10.28
2018-09-17T12:34:34.657Z,10.20
2018-09-17T12:37:04.330Z,10.85
2018-09-17T12:39:33.886Z,11.73
2018-09-17T12:42:03.567Z,10.80
2018-09-17T12:44:33.170Z,9.95
2018-09-17T12:47:02.784Z,11.25
2018-09-17T12:49:32.506Z,11.38
2018-09-17T12:52:02.049Z,11.43
2018-09-17T12:54:31.640Z,11.40
2018-09-17T12:57:01.322Z,9.38
2018-09-17T12:59:30.916Z,11.25
2018-09-17T13:02:00.547Z,9.80
2018-09-17T13:04:30.242Z,11.18
2018-09-17T13:06:59.810Z,10.88
2018-09-17T13:09:29.377Z,9.13
2018-09-17T13:11:59.018Z,8.60
2018-09-17T13:14:28.615Z,9.48
2018-09-17T13:16:58.257Z,9.20
2018-09-17T13:19:27.891Z,8.63
2018-09-17T13:21:57.462Z,8.78
2018-09-17T13:24:27.098Z,10.13
2018-09-17T13:26:56.699Z,9.10
2018-09-17T13:29:26.282Z,10.72
2018-09-17T13:31:55.994Z,9.38
2018-09-17T13:34:25.615Z,9.65
2018-09-17T13:36:55.326Z,10.68
2018-09-17T13:39:24.941Z,9.80
2018-09-17T13:41:54.524Z,11.12
2018-09-17T13:44:24.228Z,10.40
2018-09-17T13:46:53.877Z,9.60
2018-09-17T13:49:23.573Z,12.00
2018-09-17T13:51:53.227Z,10.70
2018-09-17T13:54:22.881Z,10.53
2018-09-17T13:56:52.517Z,10.67
2018-09-17T13:59:22.204Z,9.23
2018-09-17T14:01:51.820Z,9.00
2018-09-17T14:04:21.584Z,9.95
2018-09-17T14:06:51.260Z,9.30
2018-09-17T14:09:20.840Z,8.53
2018-09-17T14:11:50.396Z,9.38
2018-09-17T14:14:20.079Z,8.98
2018-09-17T14:16:49.669Z,9.40
2018-09-17T14:19:19.319Z,8.70
2018-09-17T14:21:48.989Z,9.25
2018-09-17T14:24:18.566Z,9.25
2018-09-17T14:26:48.218Z,8.73
2018-09-17T14:29:17.790Z,8.75
2018-09-17T14:32:55.521Z,10.40
2018-09-17T14:35:25.021Z,8.33
2018-09-17T14:37:54.630Z,9.53
2018-09-17T14:40:24.179Z,12.07
2018-09-17T14:42:53.851Z,11.75
2018-09-17T14:45:23.672Z,9.85
2018-09-17T14:47:53.290Z,10.30
2018-09-17T14:50:23.017Z,10.38
2018-09-17T14:52:52.596Z,9.18
2018-09-17T14:55:22.361Z,11.22
2018-09-17T14:57:51.917Z,10.88
2018-09-17T15:00:21.575Z,12.28
2018-09-17T15:02:51.231Z,12.47
2018-09-17T15:05:20.823Z,13.80
2018-09-17T15:07:50.390Z,11.70
2018-09-17T15:10:20.169Z,12.65
2018-09-17T15:12:49.814Z,11.38
2018-09-17T15:15:19.602Z,12.58
2018-09-17T15:17:49.150Z,12.40
2018-09-17T15:20:18.805Z,11.95
2018-09-17T15:22:48.515Z,12.35
2018-09-17T15:25:18.114Z,14.20
2018-09-17T15:27:47.997Z,11.55
2018-09-17T15:30:17.629Z,13.00
2018-09-17T15:32:47.211Z,14.35
2018-09-17T15:35:16.820Z,11.12
2018-09-17T15:37:46.404Z,14.80
2018-09-17T15:40:16.099Z,12.30
2018-09-17T15:42:45.730Z,11.45
2018-09-17T15:45:15.394Z,12.28
2018-09-17T15:47:44.973Z,11.43
2018-09-17T15:50:14.870Z,10.75
2018-09-17T15:52:44.513Z,12.23
2018-09-17T15:55:14.153Z,10.93
2018-09-17T15:57:44.388Z,10.88
2018-09-17T16:00:13.973Z,11.35
2018-09-17T16:02:43.644Z,10.38
2018-09-17T16:05:13.289Z,12.73
2018-09-17T16:07:42.847Z,9.80
2018-09-17T16:10:12.411Z,9.23
2018-09-17T16:12:42.695Z,12.60
2018-09-17T16:15:12.364Z,11.20
2018-09-17T16:17:41.988Z,10.18
2018-09-17T16:20:11.604Z,8.95
2018-09-17T16:22:41.159Z,9.73
2018-09-17T16:25:10.781Z,9.78
2018-09-17T16:27:40.417Z,10.30
2018-09-17T16:30:11.209Z,11.08
2018-09-17T16:32:41.184Z,9.28
2018-09-17T16:35:10.827Z,10.40
2018-09-17T16:37:41.477Z,14.65
2018-09-17T16:40:11.113Z,12.68
2018-09-17T16:42:40.756Z,13.22
2018-09-17T16:45:10.438Z,14.83
2018-09-17T16:47:40.053Z,9.63
2018-09-17T16:50:09.626Z,10.45
2018-09-17T16:52:39.311Z,11.73
2018-09-17T16:55:08.929Z,18.30
2018-09-17T16:57:38.557Z,12.57
2018-09-17T17:00:08.369Z,14.13
2018-09-17T17:02:37.994Z,17.25
2018-09-17T17:05:07.663Z,16.73
2018-09-17T17:07:37.294Z,15.37
2018-09-17T17:10:06.989Z,11.53
2018-09-17T17:12:36.573Z,17.13
2018-09-17T17:15:06.503Z,13.23
2018-09-17T17:17:36.170Z,21.47
2018-09-17T17:20:05.905Z,20.57
2018-09-17T17:22:35.507Z,13.73
2018-09-17T17:25:05.191Z,10.43
2018-09-17T17:27:34.861Z,12.07
2018-09-17T17:30:04.749Z,17.77
2018-09-17T17:32:34.454Z,15.03
2018-09-17T17:35:04.199Z,12.63
2018-09-17T17:37:33.851Z,12.73
2018-09-17T17:40:03.712Z,11.17
2018-09-17T17:42:33.339Z,15.87
2018-09-17T17:45:02.961Z,14.17
2018-09-17T17:47:32.529Z,14.60
2018-09-17T17:50:02.241Z,12.80
2018-09-17T17:52:31.825Z,14.00
2018-09-17T17:55:02.038Z,14.73
2018-09-17T17:57:31.711Z,12.37
2018-09-17T18:00:01.283Z,12.23
2018-09-17T18:02:30.890Z,12.87
2018-09-17T18:05:00.605Z,14.03
2018-09-17T18:07:30.212Z,16.23
2018-09-17T18:09:59.862Z,13.63
2018-09-17T18:12:29.465Z,14.10
2018-09-17T18:14:59.117Z,15.57
2018-09-17T18:17:29.011Z,15.53
2018-09-17T18:19:58.722Z,14.87
2018-09-17T18:22:28.385Z,17.20
2018-09-17T18:24:58.116Z,17.83
2018-09-17T18:27:27.712Z,17.00
2018-09-17T18:29:57.328Z,17.20
2018-09-17T18:32:27.290Z,13.67
2018-09-17T18:34:56.976Z,13.07
2018-09-17T18:37:26.602Z,19.30
2018-09-17T18:39:56.233Z,16.40
2018-09-17T18:42:25.919Z,19.57
2018-09-17T18:44:55.596Z,16.83
2018-09-17T18:47:25.291Z,13.47
2018-09-17T18:49:55.088Z,13.63
2018-09-17T18:52:24.760Z,16.00
2018-09-17T18:54:54.402Z,14.90
2018-09-17T18:57:24.081Z,17.10
2018-09-17T18:59:53.764Z,18.87
2018-09-17T19:02:23.543Z,15.57
2018-09-17T19:04:53.210Z,15.83
2018-09-17T19:07:22.778Z,17.73
2018-09-17T19:09:52.452Z,15.00
2018-09-17T19:12:22.342Z,16.27
2018-09-17T19:14:57.071Z,15.63
2018-09-17T19:17:31.674Z,17.33
2018-09-17T19:20:01.404Z,16.77
2018-09-17T19:22:36.360Z,16.93
2018-09-17T19:25:06.161Z,18.37
2018-09-17T19:27:40.812Z,16.70
2018-09-17T19:30:10.654Z,17.33
2018-09-17T19:32:40.704Z,20.50
2018-09-17T19:35:10.781Z,22.67
2018-09-17T19:37:45.620Z,19.23
2018-09-17T19:40:18.713Z,19.00
2018-09-17T19:42:49.326Z,20.80
2018-09-17T19:45:23.934Z,24.30
2018-09-17T19:47:53.893Z,20.57
2018-09-17T19:50:28.880Z,20.90
2018-09-17T19:52:58.534Z,20.70
2018-09-17T19:55:28.224Z,21.10
2018-09-17T19:58:02.753Z,21.13
2018-09-17T20:00:32.502Z,22.90
2018-09-17T20:03:02.035Z,24.50
2018-09-17T20:05:36.814Z,21.13
2018-09-17T20:08:06.475Z,19.20
2018-09-17T20:10:36.153Z,18.43
2018-09-17T20:13:05.893Z,16.27
2018-09-17T20:15:35.463Z,18.80
2018-09-17T20:18:05.144Z,20.50
2018-09-17T20:20:34.746Z,19.53
2018-09-17T20:23:04.437Z,20.17
2018-09-17T20:25:34.148Z,20.50
2018-09-17T20:28:03.910Z,19.00
2018-09-17T20:30:33.540Z,19.70
2018-09-17T20:33:03.280Z,19.13
2018-09-17T20:35:32.914Z,18.87
2018-09-17T20:38:02.531Z,20.87
2018-09-17T20:40:32.165Z,18.83
2018-09-17T20:43:01.723Z,19.13
2018-09-17T20:45:31.289Z,19.60
2018-09-17T20:48:00.969Z,20.53
2018-09-17T20:50:30.532Z,20.83
2018-09-17T20:53:00.248Z,20.60
2018-09-17T20:55:29.974Z,21.60
2018-09-17T20:57:59.945Z,19.60
2018-09-17T21:00:29.575Z,20.70
2018-09-17T21:02:59.262Z,20.40
2018-09-17T21:05:28.854Z,20.90
2018-09-17T21:07:58.527Z,20.17
2018-09-17T21:10:28.111Z,18.60
2018-09-17T21:12:57.874Z,18.30
2018-09-17T21:15:27.471Z,18.87
2018-09-17T21:17:57.018Z,19.20
2018-09-17T21:20:26.648Z,18.03
2018-09-17T21:22:56.258Z,18.63
2018-09-17T21:25:25.978Z,19.23
2018-09-17T21:27:55.650Z,21.13
2018-09-17T21:30:25.300Z,22.20
2018-09-17T21:32:54.878Z,21.70
2018-09-17T21:35:24.436Z,21.10
2018-09-17T21:37:54.107Z,20.80
2018-09-17T21:40:23.902Z,20.27
2018-09-17T21:42:53.483Z,20.67
2018-09-17T21:45:23.180Z,22.50
2018-09-17T21:47:52.847Z,21.00
2018-09-17T21:50:22.574Z,23.83
2018-09-17T21:52:52.599Z,21.70
2018-09-17T21:55:22.194Z,22.67
2018-09-17T21:57:51.816Z,21.93
2018-09-17T22:00:21.495Z,21.20
2018-09-17T22:02:51.110Z,21.93
2018-09-17T22:05:20.680Z,23.27
2018-09-17T22:07:50.412Z,23.40
2018-09-17T22:10:20.046Z,23.90
2018-09-17T22:12:49.646Z,22.43
2018-09-17T22:15:19.297Z,22.83
2018-09-17T22:17:48.785Z,23.57
2018-09-17T22:20:18.468Z,23.83
2018-09-17T22:22:48.100Z,23.23
2018-09-17T22:25:17.745Z,24.70
2018-09-17T22:27:47.361Z,25.03
2018-09-17T22:30:17.009Z,25.47
2018-09-17T22:32:46.629Z,23.70
2018-09-17T22:35:16.379Z,26.13
2018-09-17T22:37:45.893Z,27.50
2018-09-17T22:40:15.557Z,26.90
2018-09-17T22:42:45.163Z,28.07
2018-09-17T22:45:14.757Z,27.00
2018-09-17T22:47:44.369Z,27.63
2018-09-17T22:50:14.019Z,27.70
2018-09-17T22:52:43.624Z,26.73
2018-09-17T22:55:13.251Z,28.10
2018-09-17T22:57:42.898Z,26.53
2018-09-17T23:00:12.554Z,28.03
2018-09-17T23:02:42.220Z,28.63
2018-09-17T23:05:11.844Z,27.07
2018-09-17T23:07:41.516Z,27.23
2018-09-17T23:10:11.563Z,26.60
2018-09-17T23:12:41.290Z,27.03
2018-09-17T23:15:10.872Z,25.93
2018-09-17T23:17:40.560Z,26.30
2018-09-17T23:20:10.117Z,27.27
2018-09-17T23:22:39.762Z,27.07
2018-09-17T23:25:09.358Z,27.83
2018-09-17T23:27:38.911Z,27.20
2018-09-17T23:30:08.556Z,25.57
2018-09-17T23:32:38.168Z,24.70
2018-09-17T23:35:07.853Z,25.70
2018-09-17T23:37:37.428Z,23.77
2018-09-17T23:40:07.225Z,23.33
2018-09-17T23:42:36.836Z,24.50
2018-09-17T23:45:06.495Z,24.53
2018-09-17T23:47:36.107Z,24.23
2018-09-17T23:50:05.835Z,25.20
2018-09-17T23:52:35.395Z,26.37
2018-09-17T23:55:05.131Z,25.20
2018-09-17T23:57:34.785Z,25.10
